sensor_id;sensor_type;location;lat;lon;timestamp;P1;durP1;ratioP1;P2;durP2;ratioP2
12770;SDS011;6449;47.666;9.160;2022-08-19T00:09:44;5.32;;;4.13;;
12770;SDS011;6449;47.666;9.160;2022-08-19T00:14:38;6.35;;;4.50;;
12770;SDS011;6449;47.666;9.160;2022-08-19T00:19:32;3.83;;;3.45;;
12770;SDS011;6449;47.666;9.160;2022-08-19T00:24:26;3.67;;;3.22;;
12770;SDS011;6449;47.666;9.160;2022-08-19T00:29:21;4.20;;;3.80;;
12770;SDS011;6449;47.666;9.160;2022-08-19T00:34:17;4.00;;;3.70;;
12770;SDS011;6449;47.666;9.160;2022-08-19T00:39:10;3.92;;;3.53;;
12770;SDS011;6449;47.666;9.160;2022-08-19T00:44:07;5.75;;;4.22;;
12770;SDS011;6449;47.666;9.160;2022-08-19T00:49:10;5.63;;;4.18;;
12770;SDS011;6449;47.666;9.160;2022-08-19T00:54:08;4.35;;;3.95;;
12770;SDS011;6449;47.666;9.160;2022-08-19T00:59:02;5.18;;;3.67;;
12770;SDS011;6449;47.666;9.160;2022-08-19T01:04:00;5.00;;;4.47;;
12770;SDS011;6449;47.666;9.160;2022-08-19T01:08:55;4.60;;;4.15;;
12770;SDS011;6449;47.666;9.160;2022-08-19T01:13:48;5.25;;;4.32;;
12770;SDS011;6449;47.666;9.160;2022-08-19T01:18:45;4.32;;;3.92;;
12770;SDS011;6449;47.666;9.160;2022-08-19T01:23:41;6.68;;;4.63;;
12770;SDS011;6449;47.666;9.160;2022-08-19T01:28:35;5.03;;;4.53;;
12770;SDS011;6449;47.666;9.160;2022-08-19T01:33:32;5.70;;;4.75;;
12770;SDS011;6449;47.666;9.160;2022-08-19T01:38:26;5.35;;;4.85;;
12770;SDS011;6449;47.666;9.160;2022-08-19T01:43:24;5.57;;;5.07;;
12770;SDS011;6449;47.666;9.160;2022-08-19T01:48:17;5.97;;;5.38;;
12770;SDS011;6449;47.666;9.160;2022-08-19T01:53:11;6.03;;;5.43;;
12770;SDS011;6449;47.666;9.160;2022-08-19T01:58:05;7.45;;;6.28;;
12770;SDS011;6449;47.666;9.160;2022-08-19T02:03:04;7.28;;;6.57;;
12770;SDS011;6449;47.666;9.160;2022-08-19T02:08:00;9.15;;;7.20;;
12770;SDS011;6449;47.666;9.160;2022-08-19T02:12:54;7.78;;;6.97;;
12770;SDS011;6449;47.666;9.160;2022-08-19T02:17:47;7.80;;;7.00;;
12770;SDS011;6449;47.666;9.160;2022-08-19T02:22:42;9.13;;;8.05;;
12770;SDS011;6449;47.666;9.160;2022-08-19T02:27:36;8.93;;;7.38;;
12770;SDS011;6449;47.666;9.160;2022-08-19T02:32:29;9.27;;;7.93;;
12770;SDS011;6449;47.666;9.160;2022-08-19T02:37:24;9.32;;;7.47;;
12770;SDS011;6449;47.666;9.160;2022-08-19T02:42:37;8.75;;;7.38;;
12770;SDS011;6449;47.666;9.160;2022-08-19T02:47:31;10.13;;;8.45;;
12770;SDS011;6449;47.666;9.160;2022-08-19T02:52:25;10.35;;;9.23;;
12770;SDS011;6449;47.666;9.160;2022-08-19T02:57:19;9.18;;;7.50;;
12770;SDS011;6449;47.666;9.160;2022-08-19T03:02:14;10.43;;;8.68;;
12770;SDS011;6449;47.666;9.160;2022-08-19T03:07:12;10.35;;;8.93;;
12770;SDS011;6449;47.666;9.160;2022-08-19T03:12:08;9.07;;;7.93;;
12770;SDS011;6449;47.666;9.160;2022-08-19T03:17:03;12.60;;;9.65;;
12770;SDS011;6449;47.666;9.160;2022-08-19T03:21:58;11.90;;;9.48;;
12770;SDS011;6449;47.666;9.160;2022-08-19T03:26:53;11.10;;;9.35;;
12770;SDS011;6449;47.666;9.160;2022-08-19T03:31:49;11.00;;;8.40;;
12770;SDS011;6449;47.666;9.160;2022-08-19T03:36:43;11.50;;;9.75;;
12770;SDS011;6449;47.666;9.160;2022-08-19T03:41:40;12.30;;;10.30;;
12770;SDS011;6449;47.666;9.160;2022-08-19T03:46:38;10.95;;;9.00;;
12770;SDS011;6449;47.666;9.160;2022-08-19T03:51:35;11.63;;;9.88;;
12770;SDS011;6449;47.666;9.160;2022-08-19T03:56:32;13.02;;;10.70;;
12770;SDS011;6449;47.666;9.160;2022-08-19T04:01:28;12.27;;;10.00;;
12770;SDS011;6449;47.666;9.160;2022-08-19T04:06:27;14.60;;;11.25;;
12770;SDS011;6449;47.666;9.160;2022-08-19T04:11:24;12.18;;;10.43;;
12770;SDS011;6449;47.666;9.160;2022-08-19T04:16:35;13.68;;;11.30;;
12770;SDS011;6449;47.666;9.160;2022-08-19T04:21:29;11.40;;;9.80;;
12770;SDS011;6449;47.666;9.160;2022-08-19T04:26:23;11.85;;;10.02;;
12770;SDS011;6449;47.666;9.160;2022-08-19T04:31:24;9.50;;;8.50;;
12770;SDS011;6449;47.666;9.160;2022-08-19T04:36:22;10.70;;;8.85;;
12770;SDS011;6449;47.666;9.160;2022-08-19T04:41:18;12.13;;;8.05;;
12770;SDS011;6449;47.666;9.160;2022-08-19T04:46:29;9.55;;;8.02;;
12770;SDS011;6449;47.666;9.160;2022-08-19T04:51:32;10.00;;;8.73;;
12770;SDS011;6449;47.666;9.160;2022-08-19T04:56:28;11.43;;;9.07;;
12770;SDS011;6449;47.666;9.160;2022-08-19T05:01:22;11.20;;;9.52;;
12770;SDS011;6449;47.666;9.160;2022-08-19T05:06:21;10.32;;;8.82;;
12770;SDS011;6449;47.666;9.160;2022-08-19T05:11:18;11.70;;;10.25;;
12770;SDS011;6449;47.666;9.160;2022-08-19T05:16:17;11.40;;;9.57;;
12770;SDS011;6449;47.666;9.160;2022-08-19T05:21:15;13.63;;;10.38;;
12770;SDS011;6449;47.666;9.160;2022-08-19T05:26:30;14.00;;;11.23;;
12770;SDS011;6449;47.666;9.160;2022-08-19T05:31:23;11.88;;;10.13;;
12770;SDS011;6449;47.666;9.160;2022-08-19T05:36:17;15.25;;;11.68;;
12770;SDS011;6449;47.666;9.160;2022-08-19T05:41:14;14.15;;;10.55;;
12770;SDS011;6449;47.666;9.160;2022-08-19T05:46:13;17.17;;;12.50;;
12770;SDS011;6449;47.666;9.160;2022-08-19T05:51:18;16.05;;;12.40;;
12770;SDS011;6449;47.666;9.160;2022-08-19T05:56:12;15.10;;;11.77;;
12770;SDS011;6449;47.666;9.160;2022-08-19T06:01:10;17.90;;;13.25;;
12770;SDS011;6449;47.666;9.160;2022-08-19T06:06:09;15.70;;;11.38;;
12770;SDS011;6449;47.666;9.160;2022-08-19T06:16:26;17.52;;;13.57;;
12770;SDS011;6449;47.666;9.160;2022-08-19T06:21:21;18.13;;;14.25;;
12770;SDS011;6449;47.666;9.160;2022-08-19T06:26:18;18.15;;;13.68;;
12770;SDS011;6449;47.666;9.160;2022-08-19T06:31:13;17.35;;;11.95;;
12770;SDS011;6449;47.666;9.160;2022-08-19T06:36:16;16.63;;;12.90;;
12770;SDS011;6449;47.666;9.160;2022-08-19T06:41:16;19.30;;;14.18;;
12770;SDS011;6449;47.666;9.160;2022-08-19T06:46:10;18.45;;;13.98;;
12770;SDS011;6449;47.666;9.160;2022-08-19T06:51:06;20.88;;;15.10;;
12770;SDS011;6449;47.666;9.160;2022-08-19T06:56:01;19.23;;;14.77;;
12770;SDS011;6449;47.666;9.160;2022-08-19T07:00:55;18.30;;;13.85;;
12770;SDS011;6449;47.666;9.160;2022-08-19T07:05:48;17.65;;;13.88;;
12770;SDS011;6449;47.666;9.160;2022-08-19T07:10:42;20.55;;;15.88;;
12770;SDS011;6449;47.666;9.160;2022-08-19T07:15:39;18.85;;;14.80;;
12770;SDS011;6449;47.666;9.160;2022-08-19T07:20:33;17.75;;;14.20;;
12770;SDS011;6449;47.666;9.160;2022-08-19T07:25:26;19.85;;;15.82;;
12770;SDS011;6449;47.666;9.160;2022-08-19T07:30:23;19.33;;;14.32;;
12770;SDS011;6449;47.666;9.160;2022-08-19T07:35:18;17.52;;;14.45;;
12770;SDS011;6449;47.666;9.160;2022-08-19T07:40:12;14.55;;;12.18;;
12770;SDS011;6449;47.666;9.160;2022-08-19T07:45:06;19.40;;;13.63;;
12770;SDS011;6449;47.666;9.160;2022-08-19T07:50:01;18.48;;;12.82;;
12770;SDS011;6449;47.666;9.160;2022-08-19T07:54:59;19.02;;;14.52;;
12770;SDS011;6449;47.666;9.160;2022-08-19T07:59:54;17.30;;;13.77;;
12770;SDS011;6449;47.666;9.160;2022-08-19T08:04:48;16.88;;;13.40;;
12770;SDS011;6449;47.666;9.160;2022-08-19T08:10:00;19.20;;;13.57;;
12770;SDS011;6449;47.666;9.160;2022-08-19T08:14:54;19.17;;;14.48;;
12770;SDS011;6449;47.666;9.160;2022-08-19T08:19:52;16.63;;;14.05;;
12770;SDS011;6449;47.666;9.160;2022-08-19T08:24:46;18.17;;;14.43;;
12770;SDS011;6449;47.666;9.160;2022-08-19T08:29:41;17.50;;;14.32;;
12770;SDS011;6449;47.666;9.160;2022-08-19T08:34:35;19.15;;;14.90;;
12770;SDS011;6449;47.666;9.160;2022-08-19T08:39:29;22.48;;;16.23;;
12770;SDS011;6449;47.666;9.160;2022-08-19T08:44:25;24.65;;;16.48;;
12770;SDS011;6449;47.666;9.160;2022-08-19T08:49:36;18.40;;;14.32;;
12770;SDS011;6449;47.666;9.160;2022-08-19T08:54:42;21.88;;;15.40;;
12770;SDS011;6449;47.666;9.160;2022-08-19T08:59:45;22.45;;;16.85;;
12770;SDS011;6449;47.666;9.160;2022-08-19T09:04:44;21.58;;;15.70;;
12770;SDS011;6449;47.666;9.160;2022-08-19T09:09:40;21.00;;;15.77;;
12770;SDS011;6449;47.666;9.160;2022-08-19T09:14:39;25.33;;;17.48;;
12770;SDS011;6449;47.666;9.160;2022-08-19T09:19:51;25.75;;;17.63;;
12770;SDS011;6449;47.666;9.160;2022-08-19T09:24:48;25.10;;;16.15;;
12770;SDS011;6449;47.666;9.160;2022-08-19T09:29:43;22.33;;;16.00;;
12770;SDS011;6449;47.666;9.160;2022-08-19T09:34:40;22.50;;;15.63;;
12770;SDS011;6449;47.666;9.160;2022-08-19T09:39:43;22.15;;;15.57;;
12770;SDS011;6449;47.666;9.160;2022-08-19T09:44:36;23.38;;;15.57;;
12770;SDS011;6449;47.666;9.160;2022-08-19T09:49:30;24.85;;;15.77;;
12770;SDS011;6449;47.666;9.160;2022-08-19T09:54:24;21.60;;;14.77;;
12770;SDS011;6449;47.666;9.160;2022-08-19T09:59:19;23.45;;;15.55;;
12770;SDS011;6449;47.666;9.160;2022-08-19T10:04:13;22.13;;;15.70;;
12770;SDS011;6449;47.666;9.160;2022-08-19T10:09:12;19.60;;;13.75;;
12770;SDS011;6449;47.666;9.160;2022-08-19T10:14:25;22.13;;;14.88;;
12770;SDS011;6449;47.666;9.160;2022-08-19T10:19:18;16.88;;;13.05;;
12770;SDS011;6449;47.666;9.160;2022-08-19T10:24:16;19.70;;;13.48;;
12770;SDS011;6449;47.666;9.160;2022-08-19T10:29:10;21.67;;;14.52;;
12770;SDS011;6449;47.666;9.160;2022-08-19T10:34:24;17.65;;;12.98;;
12770;SDS011;6449;47.666;9.160;2022-08-19T10:39:21;21.30;;;13.75;;
12770;SDS011;6449;47.666;9.160;2022-08-19T10:44:21;18.55;;;12.82;;
12770;SDS011;6449;47.666;9.160;2022-08-19T10:49:22;17.55;;;12.57;;
12770;SDS011;6449;47.666;9.160;2022-08-19T10:54:17;19.17;;;12.82;;
12770;SDS011;6449;47.666;9.160;2022-08-19T10:59:25;18.42;;;13.10;;
12770;SDS011;6449;47.666;9.160;2022-08-19T11:04:27;18.98;;;13.13;;
12770;SDS011;6449;47.666;9.160;2022-08-19T11:09:23;19.23;;;12.30;;
12770;SDS011;6449;47.666;9.160;2022-08-19T11:14:24;16.75;;;11.75;;
12770;SDS011;6449;47.666;9.160;2022-08-19T11:19:22;16.50;;;11.70;;
12770;SDS011;6449;47.666;9.160;2022-08-19T11:24:17;20.40;;;14.50;;
12770;SDS011;6449;47.666;9.160;2022-08-19T11:29:14;24.52;;;17.00;;
12770;SDS011;6449;47.666;9.160;2022-08-19T11:34:11;25.90;;;16.75;;
12770;SDS011;6449;47.666;9.160;2022-08-19T11:39:09;24.73;;;16.63;;
12770;SDS011;6449;47.666;9.160;2022-08-19T11:44:04;26.42;;;17.73;;
12770;SDS011;6449;47.666;9.160;2022-08-19T11:49:00;22.40;;;16.00;;
12770;SDS011;6449;47.666;9.160;2022-08-19T11:53:59;27.77;;;18.98;;
12770;SDS011;6449;47.666;9.160;2022-08-19T11:58:53;26.88;;;18.02;;
12770;SDS011;6449;47.666;9.160;2022-08-19T12:03:49;28.58;;;19.08;;
12770;SDS011;6449;47.666;9.160;2022-08-19T12:08:46;28.92;;;19.98;;
12770;SDS011;6449;47.666;9.160;2022-08-19T12:13:39;28.17;;;19.08;;
12770;SDS011;6449;47.666;9.160;2022-08-19T12:18:35;26.00;;;17.63;;
12770;SDS011;6449;47.666;9.160;2022-08-19T12:23:29;24.10;;;17.45;;
12770;SDS011;6449;47.666;9.160;2022-08-19T12:28:24;26.33;;;18.92;;
12770;SDS011;6449;47.666;9.160;2022-08-19T12:33:18;24.77;;;17.98;;
12770;SDS011;6449;47.666;9.160;2022-08-19T12:38:15;25.90;;;17.48;;
12770;SDS011;6449;47.666;9.160;2022-08-19T12:43:09;24.30;;;17.65;;
12770;SDS011;6449;47.666;9.160;2022-08-19T12:48:05;26.17;;;18.52;;
12770;SDS011;6449;47.666;9.160;2022-08-19T12:53:18;22.27;;;17.17;;
12770;SDS011;6449;47.666;9.160;2022-08-19T12:58:12;23.20;;;17.08;;
12770;SDS011;6449;47.666;9.160;2022-08-19T13:03:07;23.33;;;17.88;;
12770;SDS011;6449;47.666;9.160;2022-08-19T13:08:00;25.00;;;17.70;;
12770;SDS011;6449;47.666;9.160;2022-08-19T13:12:54;25.23;;;18.45;;
12770;SDS011;6449;47.666;9.160;2022-08-19T13:17:51;26.40;;;18.42;;
12770;SDS011;6449;47.666;9.160;2022-08-19T13:22:48;26.48;;;20.23;;
12770;SDS011;6449;47.666;9.160;2022-08-19T13:27:43;26.13;;;18.92;;
12770;SDS011;6449;47.666;9.160;2022-08-19T13:32:37;27.20;;;18.77;;
12770;SDS011;6449;47.666;9.160;2022-08-19T13:37:49;24.98;;;19.25;;
12770;SDS011;6449;47.666;9.160;2022-08-19T13:42:43;24.98;;;18.35;;
12770;SDS011;6449;47.666;9.160;2022-08-19T13:47:40;28.17;;;19.38;;
12770;SDS011;6449;47.666;9.160;2022-08-19T13:52:35;27.48;;;19.98;;
12770;SDS011;6449;47.666;9.160;2022-08-19T13:57:30;24.30;;;17.88;;
12770;SDS011;6449;47.666;9.160;2022-08-19T14:02:23;30.15;;;21.23;;
12770;SDS011;6449;47.666;9.160;2022-08-19T14:07:18;23.40;;;18.13;;
12770;SDS011;6449;47.666;9.160;2022-08-19T14:12:15;27.65;;;20.85;;
12770;SDS011;6449;47.666;9.160;2022-08-19T14:17:20;30.17;;;20.13;;
12770;SDS011;6449;47.666;9.160;2022-08-19T14:22:14;29.25;;;20.65;;
12770;SDS011;6449;47.666;9.160;2022-08-19T14:27:12;28.17;;;20.90;;
12770;SDS011;6449;47.666;9.160;2022-08-19T14:32:06;27.90;;;20.23;;
12770;SDS011;6449;47.666;9.160;2022-08-19T14:37:08;31.27;;;21.45;;
12770;SDS011;6449;47.666;9.160;2022-08-19T14:42:06;30.58;;;21.70;;
12770;SDS011;6449;47.666;9.160;2022-08-19T14:47:02;30.38;;;21.67;;
12770;SDS011;6449;47.666;9.160;2022-08-19T14:52:00;27.02;;;20.02;;
12770;SDS011;6449;47.666;9.160;2022-08-19T14:56:55;31.63;;;22.88;;
12770;SDS011;6449;47.666;9.160;2022-08-19T15:01:49;32.53;;;22.92;;
12770;SDS011;6449;47.666;9.160;2022-08-19T15:06:42;36.38;;;24.38;;
12770;SDS011;6449;47.666;9.160;2022-08-19T15:11:36;33.13;;;23.50;;
12770;SDS011;6449;47.666;9.160;2022-08-19T15:16:31;34.55;;;24.13;;
12770;SDS011;6449;47.666;9.160;2022-08-19T15:21:25;36.40;;;24.17;;
12770;SDS011;6449;47.666;9.160;2022-08-19T15:26:20;34.33;;;24.08;;
12770;SDS011;6449;47.666;9.160;2022-08-19T15:31:15;32.63;;;22.52;;
12770;SDS011;6449;47.666;9.160;2022-08-19T15:36:20;35.25;;;23.92;;
12770;SDS011;6449;47.666;9.160;2022-08-19T15:41:15;30.30;;;21.42;;
12770;SDS011;6449;47.666;9.160;2022-08-19T15:46:16;31.20;;;23.38;;
12770;SDS011;6449;47.666;9.160;2022-08-19T15:51:12;32.15;;;21.85;;
12770;SDS011;6449;47.666;9.160;2022-08-19T15:56:07;35.63;;;23.65;;
12770;SDS011;6449;47.666;9.160;2022-08-19T16:01:02;30.17;;;21.10;;
12770;SDS011;6449;47.666;9.160;2022-08-19T16:06:17;36.90;;;24.40;;
12770;SDS011;6449;47.666;9.160;2022-08-19T16:11:21;40.42;;;25.25;;
12770;SDS011;6449;47.666;9.160;2022-08-19T16:16:20;33.60;;;22.67;;
12770;SDS011;6449;47.666;9.160;2022-08-19T16:21:24;35.88;;;25.17;;
12770;SDS011;6449;47.666;9.160;2022-08-19T16:26:23;39.03;;;25.73;;
12770;SDS011;6449;47.666;9.160;2022-08-19T16:31:22;38.00;;;26.08;;
12770;SDS011;6449;47.666;9.160;2022-08-19T16:36:17;37.75;;;24.95;;
12770;SDS011;6449;47.666;9.160;2022-08-19T16:41:12;34.40;;;24.15;;
12770;SDS011;6449;47.666;9.160;2022-08-19T16:46:07;34.15;;;23.17;;
12770;SDS011;6449;47.666;9.160;2022-08-19T16:51:01;38.67;;;25.50;;
12770;SDS011;6449;47.666;9.160;2022-08-19T16:55:58;37.90;;;23.95;;
12770;SDS011;6449;47.666;9.160;2022-08-19T17:00:52;36.15;;;24.52;;
12770;SDS011;6449;47.666;9.160;2022-08-19T17:05:53;39.00;;;25.35;;
12770;SDS011;6449;47.666;9.160;2022-08-19T17:10:48;38.75;;;24.45;;
12770;SDS011;6449;47.666;9.160;2022-08-19T17:16:02;38.55;;;24.70;;
12770;SDS011;6449;47.666;9.160;2022-08-19T17:20:58;30.15;;;21.17;;
12770;SDS011;6449;47.666;9.160;2022-08-19T17:25:53;32.30;;;22.10;;
12770;SDS011;6449;47.666;9.160;2022-08-19T17:30:47;31.70;;;21.20;;
12770;SDS011;6449;47.666;9.160;2022-08-19T17:35:41;31.92;;;21.73;;
12770;SDS011;6449;47.666;9.160;2022-08-19T17:40:45;33.13;;;22.42;;
12770;SDS011;6449;47.666;9.160;2022-08-19T17:45:42;30.48;;;21.38;;
12770;SDS011;6449;47.666;9.160;2022-08-19T17:50:36;29.27;;;20.92;;
12770;SDS011;6449;47.666;9.160;2022-08-19T17:55:37;28.00;;;20.20;;
12770;SDS011;6449;47.666;9.160;2022-08-19T18:00:32;32.15;;;21.30;;
12770;SDS011;6449;47.666;9.160;2022-08-19T18:05:28;29.75;;;20.67;;
12770;SDS011;6449;47.666;9.160;2022-08-19T18:10:25;29.20;;;20.23;;
12770;SDS011;6449;47.666;9.160;2022-08-19T18:15:26;29.13;;;21.00;;
12770;SDS011;6449;47.666;9.160;2022-08-19T18:20:21;28.10;;;20.10;;
12770;SDS011;6449;47.666;9.160;2022-08-19T18:25:16;28.17;;;19.75;;
12770;SDS011;6449;47.666;9.160;2022-08-19T18:30:14;27.67;;;19.38;;
12770;SDS011;6449;47.666;9.160;2022-08-19T18:35:09;32.53;;;21.35;;
12770;SDS011;6449;47.666;9.160;2022-08-19T18:40:09;29.00;;;20.23;;
12770;SDS011;6449;47.666;9.160;2022-08-19T18:45:24;24.42;;;18.40;;
12770;SDS011;6449;47.666;9.160;2022-08-19T18:50:35;28.65;;;20.92;;
12770;SDS011;6449;47.666;9.160;2022-08-19T18:55:33;27.42;;;20.55;;
12770;SDS011;6449;47.666;9.160;2022-08-19T19:00:27;28.00;;;20.73;;
12770;SDS011;6449;47.666;9.160;2022-08-19T19:05:23;30.10;;;22.35;;
12770;SDS011;6449;47.666;9.160;2022-08-19T19:10:17;28.38;;;19.25;;
12770;SDS011;6449;47.666;9.160;2022-08-19T19:15:12;25.33;;;18.58;;
12770;SDS011;6449;47.666;9.160;2022-08-19T19:20:07;21.17;;;16.90;;
12770;SDS011;6449;47.666;9.160;2022-08-19T19:25:01;26.27;;;19.33;;
12770;SDS011;6449;47.666;9.160;2022-08-19T19:29:58;25.60;;;18.75;;
12770;SDS011;6449;47.666;9.160;2022-08-19T19:34:53;25.33;;;18.65;;
12770;SDS011;6449;47.666;9.160;2022-08-19T19:40:05;22.85;;;17.27;;
12770;SDS011;6449;47.666;9.160;2022-08-19T19:45:07;21.95;;;17.20;;
12770;SDS011;6449;47.666;9.160;2022-08-19T19:50:02;22.45;;;16.88;;
12770;SDS011;6449;47.666;9.160;2022-08-19T19:55:13;21.73;;;16.75;;
12770;SDS011;6449;47.666;9.160;2022-08-19T20:00:19;21.92;;;16.75;;
12770;SDS011;6449;47.666;9.160;2022-08-19T20:05:18;21.88;;;16.38;;
12770;SDS011;6449;47.666;9.160;2022-08-19T20:10:22;21.63;;;16.33;;
12770;SDS011;6449;47.666;9.160;2022-08-19T20:15:20;22.88;;;16.77;;
12770;SDS011;6449;47.666;9.160;2022-08-19T20:20:16;19.05;;;14.75;;
12770;SDS011;6449;47.666;9.160;2022-08-19T20:25:13;23.10;;;17.10;;
12770;SDS011;6449;47.666;9.160;2022-08-19T20:30:18;23.83;;;17.45;;
12770;SDS011;6449;47.666;9.160;2022-08-19T20:35:36;19.50;;;15.57;;
12770;SDS011;6449;47.666;9.160;2022-08-19T20:40:29;21.38;;;16.98;;
12770;SDS011;6449;47.666;9.160;2022-08-19T20:45:28;21.67;;;15.30;;
12770;SDS011;6449;47.666;9.160;2022-08-19T20:50:24;21.50;;;15.10;;
12770;SDS011;6449;47.666;9.160;2022-08-19T20:55:22;19.23;;;14.85;;
12770;SDS011;6449;47.666;9.160;2022-08-19T21:00:16;17.50;;;14.77;;
12770;SDS011;6449;47.666;9.160;2022-08-19T21:05:09;18.63;;;15.68;;
12770;SDS011;6449;47.666;9.160;2022-08-19T21:10:04;18.23;;;14.65;;
12770;SDS011;6449;47.666;9.160;2022-08-19T21:15:00;16.88;;;14.32;;
12770;SDS011;6449;47.666;9.160;2022-08-19T21:19:55;19.40;;;15.82;;
12770;SDS011;6449;47.666;9.160;2022-08-19T21:24:48;19.08;;;15.30;;
12770;SDS011;6449;47.666;9.160;2022-08-19T21:29:41;16.80;;;14.45;;
12770;SDS011;6449;47.666;9.160;2022-08-19T21:34:38;15.25;;;13.65;;
12770;SDS011;6449;47.666;9.160;2022-08-19T21:39:34;16.55;;;14.27;;
12770;SDS011;6449;47.666;9.160;2022-08-19T21:44:27;15.57;;;13.75;;
12770;SDS011;6449;47.666;9.160;2022-08-19T21:49:21;15.82;;;13.98;;
12770;SDS011;6449;47.666;9.160;2022-08-19T21:54:15;16.42;;;13.48;;
12770;SDS011;6449;47.666;9.160;2022-08-19T21:59:09;17.70;;;14.18;;
12770;SDS011;6449;47.666;9.160;2022-08-19T22:04:02;15.35;;;13.18;;
12770;SDS011;6449;47.666;9.160;2022-08-19T22:08:56;13.48;;;12.07;;
12770;SDS011;6449;47.666;9.160;2022-08-19T22:13:51;13.95;;;12.38;;
12770;SDS011;6449;47.666;9.160;2022-08-19T22:18:46;14.30;;;12.80;;
12770;SDS011;6449;47.666;9.160;2022-08-19T22:23:40;17.42;;;13.75;;
12770;SDS011;6449;47.666;9.160;2022-08-19T22:28:34;16.30;;;12.77;;
12770;SDS011;6449;47.666;9.160;2022-08-19T22:33:31;15.20;;;12.88;;
12770;SDS011;6449;47.666;9.160;2022-08-19T22:38:26;13.82;;;12.35;;
12770;SDS011;6449;47.666;9.160;2022-08-19T22:43:20;14.45;;;12.15;;
12770;SDS011;6449;47.666;9.160;2022-08-19T22:48:17;14.80;;;13.20;;
12770;SDS011;6449;47.666;9.160;2022-08-19T22:53:14;12.43;;;11.13;;
12770;SDS011;6449;47.666;9.160;2022-08-19T22:58:08;15.05;;;12.82;;
12770;SDS011;6449;47.666;9.160;2022-08-19T23:03:01;14.35;;;12.32;;
12770;SDS011;6449;47.666;9.160;2022-08-19T23:07:55;15.93;;;12.88;;
12770;SDS011;6449;47.666;9.160;2022-08-19T23:12:51;15.43;;;13.13;;
12770;SDS011;6449;47.666;9.160;2022-08-19T23:17:44;15.55;;;12.23;;
12770;SDS011;6449;47.666;9.160;2022-08-19T23:22:37;14.65;;;11.57;;
12770;SDS011;6449;47.666;9.160;2022-08-19T23:27:32;13.82;;;12.25;;
12770;SDS011;6449;47.666;9.160;2022-08-19T23:32:59;17.17;;;13.50;;
12770;SDS011;6449;47.666;9.160;2022-08-19T23:38:04;13.38;;;11.98;;
12770;SDS011;6449;47.666;9.160;2022-08-19T23:42:59;15.40;;;13.02;;
12770;SDS011;6449;47.666;9.160;2022-08-19T23:47:59;17.35;;;13.55;;
12770;SDS011;6449;47.666;9.160;2022-08-19T23:52:54;16.08;;;13.18;;
12770;SDS011;6449;47.666;9.160;2022-08-19T23:57:52;13.45;;;11.63;;
